Time;durP1;ratioP1;P1;durP2;ratioP2;P2;SDS_P1;SDS_P2;PMS_P1;PMS_P2;Temp;Humidity;BMP_temperature;BMP_pressure;BME280_temperature;BME280_humidity;BME280_pressure;Samples;Min_cycle;Max_cycle;Signal;HPM_P1;HPM_P2
2022/10/26 00:36:37;;;;;;;;;;;18.90;65.60;;;;;;5093775;28;19921;-71
2022/10/26 00:39:05;;;;;;;;;;;18.80;65.50;;;;;;5093621;28;19965;-70
2022/10/26 00:41:32;;;;;;;;;;;18.80;65.50;;;;;;5095043;28;19927;-72
2022/10/26 00:43:58;;;;;;;;;;;18.70;65.50;;;;;;5094432;28;19931;-70
2022/10/26 00:46:29;;;;;;;;;;;18.80;65.50;;;;;;5094263;28;19924;-69
2022/10/26 00:48:57;;;;;;;;;;;18.70;65.50;;;;;;5094602;28;19931;-70
2022/10/26 00:51:26;;;;;;;;;;;18.70;65.50;;;;;;5094411;28;19920;-70
2022/10/26 00:53:52;;;;;;;;;;;18.70;65.50;;;;;;5093112;28;19920;-70
2022/10/26 00:56:18;;;;;;;;;;;18.70;65.50;;;;;;5094328;28;19931;-70
2022/10/26 00:58:44;;;;;;;;;;;18.70;65.50;;;;;;5093239;28;19920;-70
2022/10/26 01:01:10;;;;;;;;;;;18.70;65.40;;;;;;5093178;28;19920;-70
2022/10/26 01:03:36;;;;;;;;;;;18.70;65.50;;;;;;5093454;28;19965;-70
2022/10/26 01:06:03;;;;;;;;;;;18.70;65.50;;;;;;5093965;28;19920;-70
2022/10/26 01:08:28;;;;;;;;;;;18.70;65.50;;;;;;5094120;28;20303;-70
2022/10/26 01:10:55;;;;;;;;;;;18.60;65.40;;;;;;5092928;28;19920;-70
2022/10/26 01:13:21;;;;;;;;;;;18.70;65.40;;;;;;5093972;28;19927;-70
2022/10/26 01:16:06;;;;;;;;;;;18.60;65.40;;;;;;5092908;28;19924;-69
2022/10/26 01:24:05;;;;;;;;;;;18.60;65.40;;;;;;5126164;27;1862214;-71
2022/10/26 01:29:27;;;;;;;;;;;18.60;65.50;;;;;;5110324;27;19918;-70
2022/10/26 01:31:56;;;;;;;;;;;18.50;65.40;;;;;;5110131;28;19920;-71
2022/10/26 01:34:29;;;;;;;;;;;18.60;65.50;;;;;;5091777;28;19920;-70
2022/10/26 01:36:57;;;;;;;;;;;18.60;65.50;;;;;;5091744;28;20018;-70
2022/10/26 01:39:27;;;;;;;;;;;18.50;65.40;;;;;;5110024;28;19920;-71
2022/10/26 01:41:56;;;;;;;;;;;18.50;65.50;;;;;;5091954;28;19920;-70
2022/10/26 01:44:27;;;;;;;;;;;18.50;65.50;;;;;;5108921;28;19920;-70
2022/10/26 01:46:54;;;;;;;;;;;18.50;65.50;;;;;;5074927;28;19920;-71
2022/10/26 01:49:22;;;;;;;;;;;18.50;65.50;;;;;;5108527;28;19970;-71
2022/10/26 01:51:47;;;;;;;;;;;18.50;65.50;;;;;;5090935;28;19968;-71
2022/10/26 01:54:13;;;;;;;;;;;18.50;65.40;;;;;;5108406;28;19920;-71
2022/10/26 01:56:39;;;;;;;;;;;18.40;65.40;;;;;;5091461;28;19920;-71
2022/10/26 02:10:02;;;;;;;;;;;18.40;65.20;;;;;;5127589;27;1865779;-70
2022/10/26 02:12:31;;;;;;;;;;;18.40;65.30;;;;;;5174698;27;19950;-71
2022/10/26 02:15:03;;;;;;;;;;;18.50;65.10;;;;;;5174462;27;19918;-71
2022/10/26 02:17:37;;;;;;;;;;;18.60;64.90;;;;;;5174628;27;19926;-71
2022/10/26 02:20:05;;;;;;;;;;;18.60;64.80;;;;;;5193109;27;20397;-70
2022/10/26 02:22:33;;;;;;;;;;;18.70;64.80;;;;;;5174426;27;19918;-71
2022/10/26 02:24:59;;;;;;;;;;;18.80;64.70;;;;;;5174131;27;19919;-71
2022/10/26 02:27:27;;;;;;;;;;;18.90;64.60;;;;;;5174036;27;19971;-71
2022/10/26 02:29:54;;;;;;;;;;;19.00;64.50;;;;;;5174094;27;19937;-70
2022/10/26 02:32:21;;;;;;;;;;;19.00;64.20;;;;;;5192789;27;19961;-70
2022/10/26 02:34:48;;;;;;;;;;;19.20;64.10;;;;;;5192975;27;20186;-71
2022/10/26 02:37:15;;;;;;;;;;;19.30;64.00;;;;;;5161573;27;19926;-70
2022/10/26 02:39:41;;;;;;;;;;;19.40;64.50;;;;;;5171908;27;19919;-71
2022/10/26 02:42:08;;;;;;;;;;;20.50;64.10;;;;;;5171743;27;19923;-70
2022/10/26 02:44:38;;;;;;;;;;;19.60;63.30;;;;;;5153138;27;20003;-70
2022/10/26 02:47:04;;;;;;;;;;;19.60;63.10;;;;;;5171880;27;19919;-71
2022/10/26 02:49:30;;;;;;;;;;;19.80;62.90;;;;;;5171451;27;20283;-70
2022/10/26 02:52:15;;;;;;;;;;;19.80;62.60;;;;;;5153064;27;20018;-70
2022/10/26 02:57:25;;;;;;;;;;;20.00;62.30;;;;;;5090036;28;19919;-71
2022/10/26 02:59:51;;;;;;;;;;;20.20;62.20;;;;;;5088838;28;20283;-71
2022/10/26 03:02:18;;;;;;;;;;;20.10;61.80;;;;;;5088579;28;19920;-71
2022/10/26 03:04:43;;;;;;;;;;;20.20;61.70;;;;;;5088447;28;19970;-71
2022/10/26 03:07:09;;;;;;;;;;;20.30;61.60;;;;;;5088449;28;19921;-71
2022/10/26 03:09:34;;;;;;;;;;;20.30;61.40;;;;;;5088413;28;19920;-71
2022/10/26 03:12:00;;;;;;;;;;;20.30;61.20;;;;;;5088523;28;20174;-71
2022/10/26 03:14:25;;;;;;;;;;;20.40;61.10;;;;;;5088634;28;19974;-71
2022/10/26 03:16:51;;;;;;;;;;;20.40;60.80;;;;;;5088260;28;19924;-71
2022/10/26 03:19:16;;;;;;;;;;;20.50;60.90;;;;;;5088137;28;20015;-72
2022/10/26 03:21:42;;;;;;;;;;;20.50;60.70;;;;;;5089448;28;20151;-71
2022/10/26 03:24:08;;;;;;;;;;;20.50;60.50;;;;;;5088043;28;19924;-71
2022/10/26 03:26:37;;;;;;;;;;;20.60;60.50;;;;;;5088139;28;19931;-71
2022/10/26 03:29:02;;;;;;;;;;;20.60;60.40;;;;;;5088341;28;19959;-71
2022/10/26 03:31:28;;;;;;;;;;;20.60;60.20;;;;;;5089274;28;20481;-70
2022/10/26 03:33:53;;;;;;;;;;;20.70;60.20;;;;;;5089222;28;19924;-71
2022/10/26 03:36:19;;;;;;;;;;;20.60;60.00;;;;;;5088969;28;20288;-71
2022/10/26 03:38:44;;;;;;;;;;;20.60;60.00;;;;;;5087884;28;19927;-71
2022/10/26 03:41:10;;;;;;;;;;;20.70;60.00;;;;;;5087786;28;19927;-70
2022/10/26 03:43:35;;;;;;;;;;;20.70;59.80;;;;;;5088051;28;19920;-71
2022/10/26 03:46:01;;;;;;;;;;;20.70;59.80;;;;;;5088249;28;19968;-70
2022/10/26 03:48:26;;;;;;;;;;;20.70;59.70;;;;;;5088783;28;20007;-71
2022/10/26 03:50:55;;;;;;;;;;;20.70;59.50;;;;;;5087834;28;19920;-71
2022/10/26 03:53:21;;;;;;;;;;;20.80;59.60;;;;;;5089097;28;20007;-71
2022/10/26 03:55:46;;;;;;;;;;;20.70;59.40;;;;;;5087300;28;20015;-70
2022/10/26 03:58:12;;;;;;;;;;;20.80;59.40;;;;;;5087756;28;20291;-70
2022/10/26 04:00:37;;;;;;;;;;;20.80;59.40;;;;;;5088205;28;19927;-71
2022/10/26 04:03:03;;;;;;;;;;;20.80;59.40;;;;;;5087174;28;19926;-72
2022/10/26 04:05:28;;;;;;;;;;;20.80;59.20;;;;;;5087704;28;19916;-71
2022/10/26 04:07:56;;;;;;;;;;;20.80;59.20;;;;;;5078219;28;20452;-70
2022/10/26 04:10:22;;;;;;;;;;;20.90;59.20;;;;;;5073844;28;20008;-70
2022/10/26 04:12:47;;;;;;;;;;;20.90;59.20;;;;;;5075194;28;20006;-71
2022/10/26 04:15:13;;;;;;;;;;;20.90;59.10;;;;;;5073761;28;20376;-71
2022/10/26 04:17:39;;;;;;;;;;;20.90;59.10;;;;;;5074033;28;19951;-70
2022/10/26 04:20:04;;;;;;;;;;;20.90;59.00;;;;;;5074002;28;20360;-71
2022/10/26 04:22:30;;;;;;;;;;;20.90;59.00;;;;;;5074784;28;19968;-71
2022/10/26 04:24:55;;;;;;;;;;;20.90;58.80;;;;;;5073592;28;19921;-70
2022/10/26 04:27:21;;;;;;;;;;;20.90;58.80;;;;;;5074747;28;19916;-70
2022/10/26 04:29:46;;;;;;;;;;;21.00;58.80;;;;;;5074801;28;19923;-71
2022/10/26 04:32:12;;;;;;;;;;;21.00;58.70;;;;;;5074678;28;19917;-71
2022/10/26 04:34:37;;;;;;;;;;;20.90;58.70;;;;;;5074763;28;19916;-72
2022/10/26 04:37:03;;;;;;;;;;;21.00;58.60;;;;;;5073197;28;20288;-71
2022/10/26 04:39:28;;;;;;;;;;;21.00;58.50;;;;;;5073374;28;19923;-71
2022/10/26 04:41:54;;;;;;;;;;;21.00;58.60;;;;;;5074720;28;19970;-70
2022/10/26 04:44:19;;;;;;;;;;;21.00;58.50;;;;;;5073188;28;20435;-70
2022/10/26 04:46:45;;;;;;;;;;;21.00;58.50;;;;;;5073056;28;20007;-71
2022/10/26 04:49:10;;;;;;;;;;;21.00;58.40;;;;;;5073118;28;19916;-70
2022/10/26 04:51:36;;;;;;;;;;;21.00;58.30;;;;;;5073389;28;19939;-71
2022/10/26 04:54:02;;;;;;;;;;;21.00;58.30;;;;;;5072873;28;19999;-71
2022/10/26 04:56:28;;;;;;;;;;;21.00;58.30;;;;;;5072724;28;19924;-71
2022/10/26 04:58:53;;;;;;;;;;;21.00;58.30;;;;;;5072873;28;20273;-70
2022/10/26 05:01:19;;;;;;;;;;;21.10;58.30;;;;;;5073261;28;19916;-71
2022/10/26 05:03:47;;;;;;;;;;;21.10;58.30;;;;;;5074123;28;19924;-71
2022/10/26 05:06:13;;;;;;;;;;;21.10;58.30;;;;;;5072773;28;20364;-71
2022/10/26 05:08:38;;;;;;;;;;;21.10;58.20;;;;;;5072922;28;19923;-71
2022/10/26 05:11:04;;;;;;;;;;;21.10;58.20;;;;;;5073005;28;19924;-71
2022/10/26 05:13:29;;;;;;;;;;;21.10;58.30;;;;;;5074006;28;19917;-71
2022/10/26 05:15:55;;;;;;;;;;;21.10;58.20;;;;;;5073841;28;19920;-71
2022/10/26 05:18:20;;;;;;;;;;;21.10;58.20;;;;;;5072276;28;20352;-71
2022/10/26 05:20:48;;;;;;;;;;;21.10;58.10;;;;;;5071994;28;19924;-70
2022/10/26 05:23:17;;;;;;;;;;;21.10;58.10;;;;;;5073631;28;19927;-70
2022/10/26 05:25:43;;;;;;;;;;;21.10;58.10;;;;;;5072836;28;19922;-71
2022/10/26 05:28:12;;;;;;;;;;;21.10;58.10;;;;;;5072298;28;20011;-71
2022/10/26 05:30:38;;;;;;;;;;;21.20;58.10;;;;;;5072496;28;20359;-70
2022/10/26 05:33:04;;;;;;;;;;;21.20;58.00;;;;;;5073534;28;19965;-71
2022/10/26 05:35:30;;;;;;;;;;;21.20;58.00;;;;;;5073403;28;19920;-71
2022/10/26 05:37:56;;;;;;;;;;;21.20;58.00;;;;;;5073074;28;19920;-71
2022/10/26 05:40:22;;;;;;;;;;;21.20;58.00;;;;;;5069841;28;20395;-71
2022/10/26 05:42:47;;;;;;;;;;;21.20;58.00;;;;;;5069501;28;19927;-71
2022/10/26 05:45:13;;;;;;;;;;;21.20;57.90;;;;;;5070989;28;20323;-71
2022/10/26 05:47:40;;;;;;;;;;;21.20;57.90;;;;;;5068323;28;19927;-71
2022/10/26 05:50:06;;;;;;;;;;;21.20;57.90;;;;;;5067704;28;20433;-71
2022/10/26 05:52:39;;;;;;;;;;;21.20;57.90;;;;;;5066962;28;20387;-70
2022/10/26 05:55:06;;;;;;;;;;;21.30;58.10;;;;;;5054705;28;19951;-71
2022/10/26 05:57:31;;;;;;;;;;;21.30;57.80;;;;;;5087768;28;20007;-71
2022/10/26 05:59:57;;;;;;;;;;;21.30;57.30;;;;;;5084740;28;20031;-71
2022/10/26 06:05:04;;;;;;;;;;;21.30;56.80;;;;;;5103187;27;19919;-71
2022/10/26 06:07:30;;;;;;;;;;;21.30;56.50;;;;;;5080301;28;19920;-70
2022/10/26 06:09:56;;;;;;;;;;;21.30;56.60;;;;;;5091174;28;19930;-70
2022/10/26 06:12:21;;;;;;;;;;;21.30;56.40;;;;;;5078883;28;19973;-69
2022/10/26 06:14:47;;;;;;;;;;;21.40;56.00;;;;;;5090377;28;20461;-69
2022/10/26 06:17:33;;;;;;;;;;;21.40;55.50;;;;;;5081578;28;19927;-73
2022/10/26 06:20:04;;;;;;;;;;;21.40;55.50;;;;;;5078783;28;19920;-73
2022/10/26 06:28:10;;;;;;;;;;;21.50;55.40;;;;;;5093586;27;19923;-69
2022/10/26 06:30:35;;;;;;;;;;;21.50;56.00;;;;;;5096089;28;19963;-71
2022/10/26 06:33:01;;;;;;;;;;;21.50;55.70;;;;;;5093898;28;19967;-71
2022/10/26 06:38:10;;;;;;;;;;;21.60;55.70;;;;;;5088015;27;19924;-70
2022/10/26 06:40:38;;;;;;;;;;;21.50;55.90;;;;;;5047828;28;19951;-67
2022/10/26 06:43:08;;;;;;;;;;;21.60;55.80;;;;;;5054596;28;19924;-69
2022/10/26 06:45:34;;;;;;;;;;;21.60;56.00;;;;;;5054327;28;19924;-66
2022/10/26 06:48:03;;;;;;;;;;;21.60;56.30;;;;;;5058521;28;20394;-66
2022/10/26 06:50:49;;;;;;;;;;;21.60;56.20;;;;;;5059069;28;19920;-70
2022/10/26 06:53:19;;;;;;;;;;;21.60;56.30;;;;;;5074319;28;19947;-70
2022/10/26 06:55:45;;;;;;;;;;;21.60;56.50;;;;;;5056691;28;19931;-67
2022/10/26 06:58:16;;;;;;;;;;;21.60;56.60;;;;;;5077717;28;19928;-67
2022/10/26 07:00:42;;;;;;;;;;;21.50;56.60;;;;;;5057171;28;20556;-69
2022/10/26 07:03:08;;;;;;;;;;;21.60;56.80;;;;;;5054124;28;19921;-68
2022/10/26 07:05:33;;;;;;;;;;;21.50;56.90;;;;;;5071846;28;20407;-66
2022/10/26 07:07:59;;;;;;;;;;;21.50;56.90;;;;;;5063226;28;19921;-68
2022/10/26 07:10:24;;;;;;;;;;;21.50;57.00;;;;;;5064376;28;20351;-69
2022/10/26 07:12:50;;;;;;;;;;;21.40;56.90;;;;;;5063264;28;19962;-68
2022/10/26 07:15:15;;;;;;;;;;;21.40;57.00;;;;;;5062854;28;19921;-68
2022/10/26 07:17:42;;;;;;;;;;;21.40;57.10;;;;;;5058130;28;19928;-67
2022/10/26 07:20:08;;;;;;;;;;;21.40;57.20;;;;;;5077275;28;19924;-69
2022/10/26 07:22:33;;;;;;;;;;;21.30;57.20;;;;;;5074264;28;21368;-70
2022/10/26 07:24:59;;;;;;;;;;;21.30;57.30;;;;;;5059274;28;19924;-69
2022/10/26 07:27:24;;;;;;;;;;;21.30;57.40;;;;;;5057699;28;19954;-67
2022/10/26 07:29:50;;;;;;;;;;;21.30;57.50;;;;;;5077024;28;19928;-68
2022/10/26 07:32:15;;;;;;;;;;;21.20;57.50;;;;;;5074019;28;20474;-68
2022/10/26 07:34:41;;;;;;;;;;;21.20;57.60;;;;;;5073311;28;19931;-67
2022/10/26 07:37:06;;;;;;;;;;;21.20;57.80;;;;;;5077606;28;19998;-68
2022/10/26 07:39:32;;;;;;;;;;;21.20;57.90;;;;;;5065446;28;20001;-67
2022/10/26 07:41:57;;;;;;;;;;;21.20;58.10;;;;;;5058135;28;20409;-70
2022/10/26 07:44:23;;;;;;;;;;;21.00;58.20;;;;;;5061998;28;20331;-67
2022/10/26 07:46:48;;;;;;;;;;;21.10;58.20;;;;;;5085031;28;19928;-70
2022/10/26 07:49:14;;;;;;;;;;;21.10;58.40;;;;;;5051465;28;20388;-68
2022/10/26 07:51:40;;;;;;;;;;;21.10;58.40;;;;;;5037094;28;19933;-69
2022/10/26 07:54:05;;;;;;;;;;;20.60;58.30;;;;;;5049669;28;20387;-68
2022/10/26 07:56:31;;;;;;;;;;;21.00;58.60;;;;;;5065294;28;20441;-68
2022/10/26 07:58:57;;;;;;;;;;;21.50;58.90;;;;;;5048369;28;19932;-68
2022/10/26 08:01:22;;;;;;;;;;;21.00;58.70;;;;;;5046044;28;19921;-64
2022/10/26 08:03:50;;;;;;;;;;;20.90;58.70;;;;;;5039574;28;19921;-64
2022/10/26 08:06:16;;;;;;;;;;;20.90;58.80;;;;;;5046637;28;19928;-66
2022/10/26 08:08:41;;;;;;;;;;;20.90;59.40;;;;;;5062004;28;19931;-68
2022/10/26 08:11:07;;;;;;;;;;;20.90;59.70;;;;;;5061725;28;20375;-65
2022/10/26 08:13:34;;;;;;;;;;;20.80;59.60;;;;;;5063143;28;20477;-66
2022/10/26 08:16:00;;;;;;;;;;;20.80;59.50;;;;;;5050027;28;19928;-65
2022/10/26 08:18:26;;;;;;;;;;;20.80;59.60;;;;;;5046556;28;20389;-67
2022/10/26 08:20:52;;;;;;;;;;;20.80;59.70;;;;;;5046467;28;19930;-65
2022/10/26 08:23:18;;;;;;;;;;;20.80;59.70;;;;;;5059940;28;20096;-65
2022/10/26 08:25:43;;;;;;;;;;;20.80;59.70;;;;;;5043575;28;19924;-65
2022/10/26 08:28:09;;;;;;;;;;;20.80;60.00;;;;;;5041342;28;20389;-65
2022/10/26 08:30:34;;;;;;;;;;;20.80;59.80;;;;;;5042478;28;19928;-65
2022/10/26 08:33:01;;;;;;;;;;;20.70;59.80;;;;;;5060534;28;19924;-64
2022/10/26 08:35:27;;;;;;;;;;;20.70;60.00;;;;;;5036470;28;20295;-63
2022/10/26 08:37:52;;;;;;;;;;;20.70;60.10;;;;;;5057020;28;19928;-64
2022/10/26 08:40:20;;;;;;;;;;;20.70;60.50;;;;;;5052474;28;20331;-66
2022/10/26 08:42:49;;;;;;;;;;;20.60;60.70;;;;;;5036419;28;19928;-66
2022/10/26 08:45:22;;;;;;;;;;;20.70;60.80;;;;;;5028401;28;19925;-66
2022/10/26 08:47:51;;;;;;;;;;;20.60;60.70;;;;;;5046891;28;19985;-63
2022/10/26 08:50:36;;;;;;;;;;;20.60;60.80;;;;;;5059388;28;19924;-65
2022/10/26 08:56:03;;;;;;;;;;;20.60;61.20;;;;;;5059370;28;20154;-63
2022/10/26 08:58:32;;;;;;;;;;;20.50;61.40;;;;;;5052405;28;19920;-65
2022/10/26 09:00:58;;;;;;;;;;;20.50;61.60;;;;;;5068358;28;20028;-67
2022/10/26 09:03:23;;;;;;;;;;;20.50;61.70;;;;;;5049299;28;20510;-66
2022/10/26 09:08:38;;;;;;;;;;;20.50;62.00;;;;;;5093395;27;19919;-64
2022/10/26 09:11:09;;;;;;;;;;;20.50;62.00;;;;;;5067638;28;19924;-66
2022/10/26 09:13:55;;;;;;;;;;;20.50;62.20;;;;;;5082901;28;19920;-65
2022/10/26 09:16:25;;;;;;;;;;;20.50;62.20;;;;;;5070188;28;20425;-66
2022/10/26 09:18:56;;;;;;;;;;;20.50;62.10;;;;;;5067103;28;19968;-67
2022/10/26 09:24:05;;;;;;;;;;;20.50;62.00;;;;;;5076521;27;20303;-66
2022/10/26 09:26:51;;;;;;;;;;;20.40;62.70;;;;;;5107423;27;20016;-66
2022/10/26 09:29:18;;;;;;;;;;;20.50;61.80;;;;;;5081653;28;19947;-66
2022/10/26 09:31:45;;;;;;;;;;;20.40;61.60;;;;;;5073956;28;19981;-65
2022/10/26 09:34:15;;;;;;;;;;;20.40;61.80;;;;;;5103575;27;20375;-67
2022/10/26 09:36:41;;;;;;;;;;;20.40;61.70;;;;;;5070173;28;19974;-67
2022/10/26 09:39:14;;;;;;;;;;;20.50;61.80;;;;;;5073983;28;19920;-68
2022/10/26 09:41:43;;;;;;;;;;;20.40;61.80;;;;;;5069996;28;19924;-66
2022/10/26 09:44:18;;;;;;;;;;;20.40;61.90;;;;;;5109286;27;19921;-66
2022/10/26 09:49:29;;;;;;;;;;;20.40;62.10;;;;;;5081945;27;1854929;-65
2022/10/26 09:51:54;;;;;;;;;;;20.40;62.10;;;;;;5114552;27;20038;-66
2022/10/26 09:54:20;;;;;;;;;;;20.40;61.90;;;;;;5132223;27;19994;-71
2022/10/26 09:56:50;;;;;;;;;;;20.40;61.90;;;;;;5129026;27;20607;-66
2022/10/26 09:59:18;;;;;;;;;;;20.40;61.90;;;;;;5118723;27;19930;-66
2022/10/26 10:01:44;;;;;;;;;;;20.40;62.00;;;;;;5118906;27;19926;-66
2022/10/26 10:09:41;;;;;;;;;;;20.40;62.20;;;;;;5071322;28;19921;-65
2022/10/26 10:12:17;;;;;;;;;;;20.40;62.40;;;;;;5067864;28;19955;-65
2022/10/26 10:14:55;;;;;;;;;;;20.40;62.60;;;;;;5067996;28;19927;-65
2022/10/26 10:17:22;;;;;;;;;;;20.40;62.90;;;;;;5063637;28;19921;-64
2022/10/26 10:19:48;;;;;;;;;;;20.50;63.00;;;;;;5066824;28;19924;-66
2022/10/26 10:24:53;;;;;;;;;;;20.40;63.20;;;;;;5084124;27;1884619;-65
2022/10/26 10:27:19;;;;;;;;;;;20.40;63.30;;;;;;5129415;27;19919;-66
2022/10/26 10:29:46;;;;;;;;;;;20.40;63.20;;;;;;5125600;27;19944;-66
2022/10/26 10:32:14;;;;;;;;;;;20.50;63.10;;;;;;5153519;27;19923;-66
2022/10/26 10:34:40;;;;;;;;;;;20.70;63.20;;;;;;5136600;27;20446;-65
2022/10/26 10:37:05;;;;;;;;;;;20.40;62.80;;;;;;5142847;27;20021;-65
2022/10/26 10:39:34;;;;;;;;;;;20.40;62.80;;;;;;5133373;27;19934;-65
2022/10/26 10:42:00;;;;;;;;;;;20.50;62.90;;;;;;5123106;27;19925;-67
2022/10/26 10:44:28;;;;;;;;;;;20.50;62.80;;;;;;5141835;27;19931;-67
2022/10/26 10:47:14;;;;;;;;;;;20.40;62.70;;;;;;5132408;27;20363;-67
2022/10/26 10:49:39;;;;;;;;;;;20.40;62.80;;;;;;5132840;27;19927;-67
2022/10/26 10:52:05;;;;;;;;;;;20.40;62.70;;;;;;5135349;27;20335;-69
2022/10/26 11:02:47;;;;;;;;;;;20.50;62.70;;;;;;5097071;27;19916;-66
2022/10/26 11:08:12;;;;;;;;;;;20.40;62.70;;;;;;5079144;27;20474;-67
2022/10/26 11:10:40;;;;;;;;;;;20.40;62.70;;;;;;5075512;28;20399;-66
2022/10/26 11:13:12;;;;;;;;;;;20.40;62.70;;;;;;5108481;28;20398;-67
2022/10/26 11:15:40;;;;;;;;;;;20.40;62.70;;;;;;5075592;28;19921;-67
2022/10/26 11:18:09;;;;;;;;;;;20.40;62.70;;;;;;5076132;28;19925;-66
2022/10/26 11:20:38;;;;;;;;;;;20.40;62.70;;;;;;5083295;28;19962;-66
2022/10/26 11:23:08;;;;;;;;;;;20.40;62.80;;;;;;5073544;28;20020;-66
2022/10/26 11:28:29;;;;;;;;;;;20.40;62.90;;;;;;5071488;28;20381;-67
2022/10/26 11:30:57;;;;;;;;;;;20.40;62.80;;;;;;5075390;28;20364;-72
2022/10/26 11:33:28;;;;;;;;;;;20.40;62.80;;;;;;5061881;28;19947;-67
2022/10/26 11:38:54;;;;;;;;;;;20.30;62.90;;;;;;5097425;27;1853253;-66
2022/10/26 11:41:40;;;;;;;;;;;20.40;62.90;;;;;;5134317;27;19972;-66
2022/10/26 11:44:12;;;;;;;;;;;20.30;62.90;;;;;;5121415;27;19934;-66
2022/10/26 11:46:39;;;;;;;;;;;20.40;62.90;;;;;;5120085;27;19919;-71
2022/10/26 11:49:25;;;;;;;;;;;20.40;63.00;;;;;;5119114;27;19923;-65
2022/10/26 11:51:53;;;;;;;;;;;20.40;63.20;;;;;;5126668;27;19919;-66
2022/10/26 11:54:22;;;;;;;;;;;20.40;63.30;;;;;;5136199;27;19926;-66
2022/10/26 11:56:49;;;;;;;;;;;20.40;63.50;;;;;;5123252;27;20436;-67
2022/10/26 11:59:19;;;;;;;;;;;20.40;64.20;;;;;;5125263;27;20394;-66
2022/10/26 12:01:54;;;;;;;;;;;20.40;63.70;;;;;;5103301;27;20027;-64
2022/10/26 12:04:21;;;;;;;;;;;20.40;63.80;;;;;;5140798;27;20405;-68
2022/10/26 12:06:48;;;;;;;;;;;20.40;64.10;;;;;;5143857;27;19927;-69
2022/10/26 12:09:16;;;;;;;;;;;20.40;63.80;;;;;;5139896;27;19972;-69
2022/10/26 12:11:47;;;;;;;;;;;20.40;63.80;;;;;;5120150;27;19962;-69
2022/10/26 12:16:58;;;;;;;;;;;20.40;63.80;;;;;;5099133;27;20398;-69
2022/10/26 12:19:30;;;;;;;;;;;20.40;63.80;;;;;;5094938;28;19959;-68
2022/10/26 12:21:56;;;;;;;;;;;20.40;63.80;;;;;;5095732;28;20325;-68
2022/10/26 12:27:03;;;;;;;;;;;20.30;63.70;;;;;;5072420;28;19912;-68
2022/10/26 12:29:31;;;;;;;;;;;20.30;63.70;;;;;;5054318;28;20250;-68
2022/10/26 12:31:57;;;;;;;;;;;20.30;64.40;;;;;;5060321;28;20419;-68
2022/10/26 12:34:24;;;;;;;;;;;20.30;63.70;;;;;;5061539;28;20012;-68
2022/10/26 12:39:32;;;;;;;;;;;19.90;63.50;;;;;;5059377;28;19953;-68
2022/10/26 12:55:33;;;;;;;;;;;20.40;63.80;;;;;;5107008;27;1849273;-68
2022/10/26 13:00:42;;;;;;;;;;;20.20;63.60;;;;;;5097455;27;19913;-72
2022/10/26 13:03:28;;;;;;;;;;;20.30;63.70;;;;;;5090718;28;19920;-68
2022/10/26 13:06:14;;;;;;;;;;;20.30;63.70;;;;;;5081993;28;19950;-68
2022/10/26 13:08:41;;;;;;;;;;;20.30;63.70;;;;;;5075292;28;19920;-68
2022/10/26 13:11:12;;;;;;;;;;;20.30;63.70;;;;;;5090800;28;19963;-68
2022/10/26 13:13:39;;;;;;;;;;;20.30;64.40;;;;;;5074817;28;20347;-68
2022/10/26 13:16:08;;;;;;;;;;;20.30;63.70;;;;;;5090442;28;19927;-68
2022/10/26 13:18:40;;;;;;;;;;;20.30;63.70;;;;;;5097684;28;19932;-68
2022/10/26 13:21:07;;;;;;;;;;;20.30;63.70;;;;;;5079637;28;20237;-68
2022/10/26 13:23:34;;;;;;;;;;;20.30;63.70;;;;;;5090128;28;19943;-68
2022/10/26 13:26:02;;;;;;;;;;;20.20;63.70;;;;;;5080496;28;20371;-68
2022/10/26 13:28:30;;;;;;;;;;;20.30;63.70;;;;;;5077959;28;20316;-68
2022/10/26 13:30:56;;;;;;;;;;;20.30;63.70;;;;;;5078553;28;19920;-68
2022/10/26 13:33:23;;;;;;;;;;;20.20;63.70;;;;;;5093732;28;19931;-69
2022/10/26 13:35:51;;;;;;;;;;;20.20;63.70;;;;;;5084003;28;20240;-68
2022/10/26 13:38:18;;;;;;;;;;;20.30;63.70;;;;;;5077719;28;19920;-68
2022/10/26 13:40:44;;;;;;;;;;;20.30;63.70;;;;;;5079744;28;20015;-68
2022/10/26 13:43:14;;;;;;;;;;;20.30;63.80;;;;;;5078355;28;20007;-68
2022/10/26 13:45:47;;;;;;;;;;;20.20;63.70;;;;;;5079130;28;19927;-69
2022/10/26 13:50:54;;;;;;;;;;;20.20;63.70;;;;;;5099772;27;19913;-69
2022/10/26 13:53:25;;;;;;;;;;;20.20;63.80;;;;;;5102862;28;19927;-69
2022/10/26 13:55:52;;;;;;;;;;;20.30;63.70;;;;;;5106075;28;19959;-68
2022/10/26 13:58:22;;;;;;;;;;;20.20;63.70;;;;;;5106495;28;20368;-68
2022/10/26 14:01:08;;;;;;;;;;;20.20;63.80;;;;;;5106934;28;19920;-68
2022/10/26 14:03:34;;;;;;;;;;;20.20;63.70;;;;;;5107209;28;19920;-68
2022/10/26 14:06:02;;;;;;;;;;;20.20;63.80;;;;;;5106979;28;20304;-69
2022/10/26 14:08:28;;;;;;;;;;;20.20;63.80;;;;;;5105174;28;19930;-69
2022/10/26 14:10:55;;;;;;;;;;;20.20;63.70;;;;;;5107807;28;19920;-69
2022/10/26 14:13:23;;;;;;;;;;;20.30;63.80;;;;;;5107852;28;19923;-69
2022/10/26 14:15:48;;;;;;;;;;;20.20;63.80;;;;;;5108325;28;19920;-69
2022/10/26 14:18:16;;;;;;;;;;;20.20;63.70;;;;;;5108980;28;19924;-69
2022/10/26 14:20:47;;;;;;;;;;;20.20;63.80;;;;;;5107199;28;19920;-69
2022/10/26 14:23:27;;;;;;;;;;;20.20;63.80;;;;;;5107152;28;19920;-68
2022/10/26 14:25:54;;;;;;;;;;;20.20;63.80;;;;;;5108066;28;20128;-68
2022/10/26 14:28:22;;;;;;;;;;;20.20;63.80;;;;;;5107555;28;20010;-68
2022/10/26 14:30:47;;;;;;;;;;;20.20;63.90;;;;;;5108370;28;19958;-69
2022/10/26 14:33:18;;;;;;;;;;;20.20;63.90;;;;;;5107143;28;20391;-68
2022/10/26 14:35:43;;;;;;;;;;;20.20;63.90;;;;;;5107655;28;19927;-69
2022/10/26 14:38:16;;;;;;;;;;;20.20;63.90;;;;;;5107467;28;19920;-69
2022/10/26 14:40:41;;;;;;;;;;;20.20;63.90;;;;;;5106416;28;19927;-68
2022/10/26 14:43:12;;;;;;;;;;;20.20;63.90;;;;;;5106507;28;19920;-68
2022/10/26 14:45:38;;;;;;;;;;;20.20;63.90;;;;;;5108371;28;19931;-69
2022/10/26 14:48:05;;;;;;;;;;;20.20;64.00;;;;;;5106609;28;20364;-68
2022/10/26 14:50:33;;;;;;;;;;;20.20;64.00;;;;;;5103770;28;19966;-69
2022/10/26 14:53:00;;;;;;;;;;;20.20;64.00;;;;;;5105891;28;20019;-69
2022/10/26 14:55:26;;;;;;;;;;;20.20;64.00;;;;;;5106870;28;20458;-69
2022/10/26 14:58:04;;;;;;;;;;;20.20;64.00;;;;;;5108343;28;19920;-69
2022/10/26 15:00:31;;;;;;;;;;;20.20;64.00;;;;;;5102646;28;19920;-69
2022/10/26 15:02:57;;;;;;;;;;;20.20;64.00;;;;;;5092795;28;19920;-68
2022/10/26 15:08:03;;;;;;;;;;;20.20;64.00;;;;;;5109178;27;19912;-68
2022/10/26 15:10:44;;;;;;;;;;;20.20;64.00;;;;;;5107857;28;19926;-69
2022/10/26 15:13:30;;;;;;;;;;;20.20;64.00;;;;;;5107368;28;20443;-72
2022/10/26 15:15:57;;;;;;;;;;;20.20;64.10;;;;;;5108288;28;20310;-69
2022/10/26 15:18:25;;;;;;;;;;;20.20;64.10;;;;;;5109648;28;19989;-69
2022/10/26 15:20:51;;;;;;;;;;;20.20;64.10;;;;;;5107915;28;19924;-68
2022/10/26 15:23:18;;;;;;;;;;;20.20;64.10;;;;;;5107607;28;19943;-68
2022/10/26 15:28:32;;;;;;;;;;;20.20;64.10;;;;;;5088744;28;19944;-69
2022/10/26 15:31:02;;;;;;;;;;;20.20;64.10;;;;;;5087290;28;19967;-68
2022/10/26 15:33:28;;;;;;;;;;;20.20;64.20;;;;;;5087045;28;20364;-69
2022/10/26 15:38:51;;;;;;;;;;;20.20;64.10;;;;;;5089138;28;19916;-69
2022/10/26 15:41:19;;;;;;;;;;;20.20;64.10;;;;;;5087298;28;20003;-72
2022/10/26 15:43:46;;;;;;;;;;;20.20;64.20;;;;;;5087442;28;19943;-69
2022/10/26 15:46:12;;;;;;;;;;;20.20;64.20;;;;;;5088523;28;20189;-69
2022/10/26 15:48:39;;;;;;;;;;;20.20;64.20;;;;;;5087272;28;19924;-69
2022/10/26 15:51:06;;;;;;;;;;;20.20;64.20;;;;;;5087040;28;19920;-69
2022/10/26 15:53:31;;;;;;;;;;;20.20;64.20;;;;;;5103728;28;20444;-69
2022/10/26 15:55:58;;;;;;;;;;;20.20;64.20;;;;;;5087648;28;20007;-69
2022/10/26 15:58:24;;;;;;;;;;;20.20;64.30;;;;;;5087581;28;20418;-69
2022/10/26 16:00:50;;;;;;;;;;;20.20;64.30;;;;;;5088514;28;19924;-69
2022/10/26 16:03:17;;;;;;;;;;;20.20;64.30;;;;;;5086952;28;19924;-69
2022/10/26 16:05:43;;;;;;;;;;;20.20;64.30;;;;;;5088993;28;19927;-72
2022/10/26 16:08:13;;;;;;;;;;;20.20;64.30;;;;;;5087207;28;19920;-69
2022/10/26 16:10:38;;;;;;;;;;;20.20;64.30;;;;;;5086490;28;19965;-69
2022/10/26 16:13:06;;;;;;;;;;;20.20;64.30;;;;;;5086795;28;19924;-69
2022/10/26 16:15:32;;;;;;;;;;;20.20;64.30;;;;;;5087124;28;19925;-69
2022/10/26 16:17:58;;;;;;;;;;;20.20;64.30;;;;;;5087765;28;20066;-68
2022/10/26 16:20:26;;;;;;;;;;;20.20;64.30;;;;;;5075430;28;20008;-68
2022/10/26 16:22:52;;;;;;;;;;;20.20;64.40;;;;;;5098965;28;19924;-69
2022/10/26 16:25:19;;;;;;;;;;;20.20;64.50;;;;;;5078096;28;19927;-68
2022/10/26 16:27:45;;;;;;;;;;;20.20;64.80;;;;;;5068067;28;20035;-69
2022/10/26 16:30:11;;;;;;;;;;;20.20;65.00;;;;;;5066282;28;20400;-69
2022/10/26 16:32:37;;;;;;;;;;;20.20;65.70;;;;;;5067432;28;19921;-69
2022/10/26 16:35:03;;;;;;;;;;;20.20;65.20;;;;;;5066174;28;20018;-73
2022/10/26 16:37:30;;;;;;;;;;;20.10;65.10;;;;;;5077332;28;19931;-71
2022/10/26 16:39:56;;;;;;;;;;;20.20;65.80;;;;;;5069778;28;19920;-68